PWSweather.com
Personal Weather Stations
Station Observations
MORROBAYNORTHBAIRD
Morro Bay, Ca North. Cloisters, Morro Bay, CA 93442

Morro Bay, Ca North. CloistersMorro Bay, CA 93442

Lat: 35.3910442, Lon: -120.86196159999997

Elevation: 16

Station Type: Ambient WS-2902A Mike Baird

Latest ConditionsUpdated 12:47:00 AM PDT Tuesday, Oct 15, 2019
Currently Today's Max Today's Min Today's Average
Temperature 49.5°F9.7°C 51.8°F11.0°C 49.3°F9.6°C 50.5°F10.3°C
Dew Point 46.7°F8.2°C 49.0°F9.4°C 46.5°F8.1°C 47.7°F8.7°C
Winds Calm Calm 1.8 mph -2.9 kmh - - 0.4 mph 0.6 kmh
Wind Gusts -- 2.2 mph3.5 kmh - -
Humidity 90% 91% 90% 90%
Pressure 29.78 in1008.5 mb 29.78 in1008.5 mb 29.77 in1008.1 mb -
Hour Temp Dew Point Humidity Winds Wind Gusts Pressure Precip Precip Rate Daily Precip Total
12:47 AM 49.5°F9.7°C 46.7°F8.2°C 90% Calm Calm -- 29.78 in1008.5 mb 0.00 in0.0 mm 0.00 in0.0 mm 0.00 in0.0 mm
12:46 AM 49.5°F9.7°C 46.7°F8.2°C 90% Calm Calm -- 29.78 in1008.5 mb 0.00 in0.0 mm 0.00 in0.0 mm 0.00 in0.0 mm
12:45 AM 49.3°F9.6°C 46.5°F8.1°C 90% Calm Calm -- 29.78 in1008.5 mb 0.00 in0.0 mm 0.00 in0.0 mm 0.00 in0.0 mm
12:44 AM 49.3°F9.6°C 46.5°F8.1°C 90% Calm Calm -- 29.78 in1008.5 mb 0.00 in0.0 mm 0.00 in0.0 mm 0.00 in0.0 mm
12:43 AM 49.3°F9.6°C 46.5°F8.1°C 90% Calm Calm -- 29.78 in1008.5 mb 0.00 in0.0 mm 0.00 in0.0 mm 0.00 in0.0 mm
12:42 AM 49.8°F9.9°C 47.0°F8.3°C 90% Calm Calm -- 29.78 in1008.5 mb 0.00 in0.0 mm 0.00 in0.0 mm 0.00 in0.0 mm
12:41 AM 49.8°F9.9°C 47.0°F8.3°C 90% 0.9 mph WSW1.4 kmh WSW 1.1 mph1.8 kmh 29.78 in1008.5 mb 0.00 in0.0 mm 0.00 in0.0 mm 0.00 in0.0 mm
12:40 AM 49.8°F9.9°C 47.0°F8.3°C 90% 0.2 mph WSW0.3 kmh WSW 1.1 mph1.8 kmh 29.78 in1008.5 mb 0.00 in0.0 mm 0.00 in0.0 mm 0.00 in0.0 mm
12:39 AM 49.8°F9.9°C 47.0°F8.3°C 90% 0.2 mph WSW0.3 kmh WSW 1.1 mph1.8 kmh 29.78 in1008.5 mb 0.00 in0.0 mm 0.00 in0.0 mm 0.00 in0.0 mm
12:38 AM 49.8°F9.9°C 47.0°F8.3°C 90% Calm Calm -- 29.77 in1008.1 mb 0.00 in0.0 mm 0.00 in0.0 mm 0.00 in0.0 mm
12:37 AM 50.0°F10.0°C 47.2°F8.4°C 90% Calm Calm -- 29.78 in1008.5 mb 0.00 in0.0 mm 0.00 in0.0 mm 0.00 in0.0 mm
12:36 AM 50.0°F10.0°C 47.2°F8.4°C 90% Calm Calm -- 29.78 in1008.5 mb 0.00 in0.0 mm 0.00 in0.0 mm 0.00 in0.0 mm
12:35 AM 50.0°F10.0°C 47.2°F8.4°C 90% Calm Calm -- 29.78 in1008.5 mb 0.00 in0.0 mm 0.00 in0.0 mm 0.00 in0.0 mm
12:34 AM 50.0°F10.0°C 47.2°F8.4°C 90% 0.2 mph WSW0.3 kmh WSW 1.1 mph1.8 kmh 29.78 in1008.5 mb 0.00 in0.0 mm 0.00 in0.0 mm 0.00 in0.0 mm
12:33 AM 50.2°F10.1°C 47.4°F8.6°C 90% 0.2 mph WSW0.3 kmh WSW 1.1 mph1.8 kmh 29.77 in1008.1 mb 0.00 in0.0 mm 0.00 in0.0 mm 0.00 in0.0 mm
12:32 AM 50.4°F10.2°C 47.6°F8.7°C 90% Calm Calm -- 29.78 in1008.5 mb 0.00 in0.0 mm 0.00 in0.0 mm 0.00 in0.0 mm
12:31 AM 50.4°F10.2°C 47.6°F8.7°C 90% 0.2 mph WSW0.3 kmh WSW 1.1 mph1.8 kmh 29.78 in1008.5 mb 0.00 in0.0 mm 0.00 in0.0 mm 0.00 in0.0 mm
12:30 AM 50.4°F10.2°C 47.6°F8.7°C 90% 0.2 mph WSW0.3 kmh WSW 1.1 mph1.8 kmh 29.77 in1008.1 mb 0.00 in0.0 mm 0.00 in0.0 mm 0.00 in0.0 mm
12:29 AM 50.5°F10.3°C 47.7°F8.7°C 90% Calm Calm -- 29.77 in1008.1 mb 0.00 in0.0 mm 0.00 in0.0 mm 0.00 in0.0 mm
12:28 AM 50.5°F10.3°C 47.7°F8.7°C 90% Calm Calm -- 29.78 in1008.5 mb 0.00 in0.0 mm 0.00 in0.0 mm 0.00 in0.0 mm
12:27 AM 50.7°F10.4°C 47.9°F8.8°C 90% Calm Calm -- 29.78 in1008.5 mb 0.00 in0.0 mm 0.00 in0.0 mm 0.00 in0.0 mm
12:26 AM 50.7°F10.4°C 47.9°F8.8°C 90% Calm Calm -- 29.77 in1008.1 mb 0.00 in0.0 mm 0.00 in0.0 mm 0.00 in0.0 mm
12:25 AM 50.5°F10.3°C 47.7°F8.7°C 90% 0.7 mph W1.1 kmh W 1.1 mph1.8 kmh 29.77 in1008.1 mb 0.00 in0.0 mm 0.00 in0.0 mm 0.00 in0.0 mm
12:24 AM 50.5°F10.3°C 47.7°F8.7°C 90% 0.2 mph W0.3 kmh W 1.1 mph1.8 kmh 29.77 in1008.1 mb 0.00 in0.0 mm 0.00 in0.0 mm 0.00 in0.0 mm
12:23 AM 50.5°F10.3°C 47.7°F8.7°C 90% Calm Calm -- 29.77 in1008.1 mb 0.00 in0.0 mm 0.00 in0.0 mm 0.00 in0.0 mm
12:22 AM 50.7°F10.4°C 47.9°F8.8°C 90% 0.2 mph W0.3 kmh W 1.1 mph1.8 kmh 29.78 in1008.5 mb 0.00 in0.0 mm 0.00 in0.0 mm 0.00 in0.0 mm
12:21 AM 50.9°F10.5°C 48.1°F8.9°C 90% Calm Calm -- 29.77 in1008.1 mb 0.00 in0.0 mm 0.00 in0.0 mm 0.00 in0.0 mm
12:20 AM 50.9°F10.5°C 48.1°F8.9°C 90% Calm Calm -- 29.77 in1008.1 mb 0.00 in0.0 mm 0.00 in0.0 mm 0.00 in0.0 mm
12:19 AM 50.9°F10.5°C 48.1°F8.9°C 90% 0.2 mph 0.3 kmh 1.1 mph1.8 kmh 29.77 in1008.1 mb 0.00 in0.0 mm 0.00 in0.0 mm 0.00 in0.0 mm
12:18 AM 50.9°F10.5°C 48.1°F8.9°C 90% 1.1 mph N1.8 kmh N 1.1 mph1.8 kmh 29.77 in1008.1 mb 0.00 in0.0 mm 0.00 in0.0 mm 0.00 in0.0 mm
12:17 AM 50.9°F10.5°C 48.1°F8.9°C 90% 1.1 mph N1.8 kmh N 1.1 mph1.8 kmh 29.77 in1008.1 mb 0.00 in0.0 mm 0.00 in0.0 mm 0.00 in0.0 mm
12:16 AM 51.1°F10.6°C 48.3°F9.1°C 90% 0.9 mph N1.4 kmh N 1.1 mph1.8 kmh 29.78 in1008.5 mb 0.00 in0.0 mm 0.00 in0.0 mm 0.00 in0.0 mm
12:15 AM 51.3°F10.7°C 48.5°F9.2°C 90% 0.9 mph N1.4 kmh N 1.1 mph1.8 kmh 29.77 in1008.1 mb 0.00 in0.0 mm 0.00 in0.0 mm 0.00 in0.0 mm
12:14 AM 51.4°F10.8°C 48.6°F9.2°C 90% 1.1 mph N1.8 kmh N 1.1 mph1.8 kmh 29.78 in1008.5 mb 0.00 in0.0 mm 0.00 in0.0 mm 0.00 in0.0 mm
12:13 AM 51.8°F11.0°C 49.0°F9.4°C 90% 0.7 mph N1.1 kmh N 1.1 mph1.8 kmh 29.77 in1008.1 mb 0.00 in0.0 mm 0.00 in0.0 mm 0.00 in0.0 mm
12:12 AM 51.8°F11.0°C 49.0°F9.4°C 90% 0.9 mph N1.4 kmh N 1.1 mph1.8 kmh 29.77 in1008.1 mb 0.00 in0.0 mm 0.00 in0.0 mm 0.00 in0.0 mm
12:11 AM 51.8°F11.0°C 49.0°F9.4°C 90% 1.8 mph NNE2.9 kmh NNE 2.2 mph3.5 kmh 29.78 in1008.5 mb 0.00 in0.0 mm 0.00 in0.0 mm 0.00 in0.0 mm
12:10 AM 51.4°F10.8°C 48.9°F9.4°C 91% 1.1 mph SE1.8 kmh SE 1.1 mph1.8 kmh 29.77 in1008.1 mb 0.00 in0.0 mm 0.00 in0.0 mm 0.00 in0.0 mm
12:09 AM 51.3°F10.7°C 48.8°F9.3°C 91% 0.4 mph S0.6 kmh S 1.1 mph1.8 kmh 29.77 in1008.1 mb 0.00 in0.0 mm 0.00 in0.0 mm 0.00 in0.0 mm
12:08 AM 51.1°F10.6°C 48.6°F9.2°C 91% 0.2 mph S0.3 kmh S 1.1 mph1.8 kmh 29.78 in1008.5 mb 0.00 in0.0 mm 0.00 in0.0 mm 0.00 in0.0 mm
12:07 AM 50.9°F10.5°C 48.4°F9.1°C 91% 0.4 mph S0.6 kmh S 1.1 mph1.8 kmh 29.78 in1008.5 mb 0.00 in0.0 mm 0.00 in0.0 mm 0.00 in0.0 mm
12:06 AM 50.9°F10.5°C 48.1°F8.9°C 90% Calm Calm -- 29.77 in1008.1 mb 0.00 in0.0 mm 0.00 in0.0 mm 0.00 in0.0 mm
12:05 AM 50.5°F10.3°C 47.7°F8.7°C 90% Calm Calm -- 29.77 in1008.1 mb 0.00 in0.0 mm 0.00 in0.0 mm 0.00 in0.0 mm
12:04 AM 50.5°F10.3°C 48.0°F8.9°C 91% 0.2 mph E0.3 kmh E 1.1 mph1.8 kmh 29.77 in1008.1 mb 0.00 in0.0 mm 0.00 in0.0 mm 0.00 in0.0 mm
12:03 AM 50.7°F10.4°C 47.9°F8.8°C 90% 0.9 mph E1.4 kmh E 1.1 mph1.8 kmh 29.77 in1008.1 mb 0.00 in0.0 mm 0.00 in0.0 mm 0.00 in0.0 mm
12:02 AM 50.9°F10.5°C 48.1°F8.9°C 90% 0.7 mph E1.1 kmh E 1.1 mph1.8 kmh 29.77 in1008.1 mb 0.00 in0.0 mm 0.00 in0.0 mm 0.00 in0.0 mm
12:01 AM 51.1°F10.6°C 48.3°F9.1°C 90% 1.1 mph ENE1.8 kmh ENE 1.1 mph1.8 kmh 29.77 in1008.1 mb 0.00 in0.0 mm 0.00 in0.0 mm 0.00 in0.0 mm
12:00 AM 51.1°F10.6°C 48.3°F9.1°C 90% 1.8 mph ENE2.9 kmh ENE 2.2 mph3.5 kmh 29.77 in1008.1 mb 0.00 in0.0 mm 0.00 in0.0 mm 0.00 in0.0 mm